Independence of the Seas — C6WW4 — position and weather

sailwx.info

Track history (hours):
 
Tides and Currents Weather Stations Pressure Air Temp Water Temp Dewpoint Dewpoint Depression Visibility Wind Speed Wind Dir Waves Ship Positions

Independence of the Seas

Last reported at 2016-Jul-30 04:06 UTC. Time now 2016-Jul-30 15:02 UTC.
Position N 50°54' W 001°25'.

Length 339 m; draft 8.8 m.

Type: Passenger vessel. MMSI: 309374000.

Date/timePositionNaut miles runAvg speedWind from/ knotsBaromVisibWave heightAir tempDewpointWater temp
2016-Jul-30 04:06N 50°54' W 001°25'4 7.0
2016-Jul-30 03:29N 50°51' W 001°20'8 9.1
2016-Jul-30 02:33N 50°46' W 001°10'1111.3
2016-Jul-30 01:33N 50°36' W 000°59'8216.1
2016-Jul-29 20:27N 49°52' W 002°48'1516.8
2016-Jul-29 19:34N 49°46' W 003°08'10116.6
2016-Jul-29 13:26N 48°54' W 005°22'61116.0
2016-Jul-27 23:20N 39°14' W 009°52'2916.4
2016-Jul-27 21:33N 38°45' W 009°51'1413.9
2016-Jul-27 20:33N 38°35' W 009°38'1616.2
2016-Jul-27 19:33N 38°40' W 009°19'9 8.7
2016-Jul-27 18:32N 38°42' W 009°08'0 0.0
2016-Jul-27 17:29N 38°42' W 009°08'0 0.0
2016-Jul-27 16:32N 38°42' W 009°08'0 0.0
2016-Jul-27 15:32N 38°42' W 009°08'0 0.0
2016-Jul-27 14:32N 38°42' W 009°08'0 0.0
2016-Jul-27 13:26N 38°42' W 009°08'0 0.0
2016-Jul-27 12:32N 38°42' W 009°08'0 0.0
2016-Jul-27 11:32N 38°42' W 009°08'3 3.4
2016-Jul-27 10:30N 38°41' W 009°12'1313.3
2016-Jul-27 09:33N 38°34' W 009°25'1616.5
2016-Jul-27 08:33N 38°17' W 009°25'1817.7
2016-Jul-27 07:33N 37°60' W 009°24'1919.3
2016-Jul-27 06:33N 37°40' W 009°23'6816.9
2016-Jul-27 02:33N 36°39' W 008°47'1919.5
2016-Jul-27 01:33N 36°33' W 008°25'2019.5
2016-Jul-27 00:32N 36°27' W 008°01'2219.5
2016-Jul-26 23:26N 36°19' W 007°36'1819.4
2016-Jul-26 22:30N 36°14' W 007°15'8219.2
2016-Jul-26 18:13N 35°58' W 005°35'1318.8
2016-Jul-26 17:33N 36°02' W 005°20'23410.2
2016-Jul-25 18:33N 37°24' W 000°47'1717.2
2016-Jul-25 17:33N 37°36' W 000°32'1717.4
2016-Jul-25 16:33N 37°48' W 000°16'1817.6
2016-Jul-25 15:33N 38°02' W 000°02'2617.5
2016-Jul-25 14:04N 38°22' E 000°20'916.9
2016-Jul-25 13:33N 38°29' E 000°27'7217.1
2016-Jul-25 09:22N 39°22' E 001°28'3217.4
2016-Jul-25 07:33N 39°45' E 001°56'1717.6
2016-Jul-25 06:34N 39°58' E 002°11'1817.8
2016-Jul-25 05:33N 40°11' E 002°27'1817.7
2016-Jul-25 04:33N 40°24' E 002°43'1817.8
2016-Jul-25 03:33N 40°37' E 002°59'1817.8
2016-Jul-25 02:34N 40°50' E 003°15'1818.2
2016-Jul-25 01:34N 41°03' E 003°32'16217.3
2016-Jul-24 16:09N 43°06' E 005°55'1 1.4
2016-Jul-24 15:33N 43°06' E 005°54'0 0.0
2016-Jul-24 14:31N 43°06' E 005°54'0 0.0
2016-Jul-24 13:31N 43°06' E 005°54'0 0.0
2016-Jul-24 12:33N 43°06' E 005°54'0 0.0
2016-Jul-24 11:33N 43°06' E 005°54'0 0.0
2016-Jul-24 10:33N 43°06' E 005°54'0 0.0
2016-Jul-24 09:33N 43°06' E 005°54'0 0.0
2016-Jul-24 08:33N 43°06' E 005°54'0 0.0
2016-Jul-24 07:33N 43°06' E 005°54'0 0.5
2016-Jul-24 06:34N 43°06' E 005°55'14115.3
2016-Jul-23 21:22N 43°20' E 009°07'1113.8
2016-Jul-23 20:34N 43°24' E 009°21'1413.7
2016-Jul-23 19:34N 43°29' E 009°39'1313.0
2016-Jul-23 18:34N 43°31' E 009°57'1313.1
2016-Jul-23 17:34N 43°32' E 010°14'3 2.6
2016-Jul-23 16:31N 43°33' E 010°18'0 0.0
2016-Jul-23 15:31N 43°33' E 010°18'0 0.0
2016-Jul-23 14:31N 43°33' E 010°18'0 0.0
2016-Jul-23 13:31N 43°33' E 010°18'0 0.0
2016-Jul-23 12:31N 43°33' E 010°18'0 0.0
2016-Jul-23 11:31N 43°33' E 010°18'0 0.0
2016-Jul-23 10:31N 43°33' E 010°18'0 0.0
2016-Jul-23 09:31N 43°33' E 010°18'0 0.0
2016-Jul-23 08:25N 43°33' E 010°18'0 0.0
2016-Jul-23 07:31N 43°33' E 010°18'0 0.0
2016-Jul-23 06:31N 43°33' E 010°18'0 0.0
2016-Jul-23 04:34N 43°33' E 010°18'10 9.6
2016-Jul-23 03:33N 43°24' E 010°12'1313.5
2016-Jul-23 02:33N 43°11' E 010°08'1414.4
2016-Jul-23 01:33N 42°57' E 010°03'1413.8
2016-Jul-23 00:33N 42°43' E 010°04'1514.1
2016-Jul-22 23:27N 42°32' E 010°18'1414.6
2016-Jul-22 22:29N 42°21' E 010°30'1314.1
2016-Jul-22 21:33N 42°09' E 010°37'1313.2
2016-Jul-22 20:33N 42°00' E 010°51'1514.2
2016-Jul-22 19:31N 41°57' E 011°10'11 0.6
2016-Jul-22 02:13N 42°07' E 011°05'1317.8
2016-Jul-22 01:29N 42°14' E 010°50'4117.9
2016-Jul-21 23:10N 42°41' E 010°07'1220.3
2016-Jul-21 22:34N 42°48' E 009°55'2120.2
2016-Jul-21 21:32N 43°02' E 009°33'2020.1
2016-Jul-21 20:33N 43°10' E 009°08'2020.5
2016-Jul-21 19:33N 43°17' E 008°42'2020.1
2016-Jul-21 18:32N 43°24' E 008°16'2719.9
2016-Jul-21 17:12N 43°33' E 007°41'1319.9
2016-Jul-21 16:34N 43°38' E 007°25'5 2.2
2016-Jul-21 14:05N 43°41' E 007°19'0 0.0
2016-Jul-21 11:17N 43°41' E 007°19'0 0.0
2016-Jul-21 10:05N 43°41' E 007°19'0 0.0
2016-Jul-21 08:29N 43°41' E 007°19'0 0.0
2016-Jul-21 07:13N 43°41' E 007°19'0 0.0
2016-Jul-21 06:32N 43°41' E 007°19'1211.7
2016-Jul-21 05:33N 43°30' E 007°17'2019.6
2016-Jul-21 04:33N 43°15' E 006°59'2119.7
2016-Jul-21 03:29N 42°60' E 006°40'1919.9
2016-Jul-21 02:33N 42°48' E 006°20'2220.4
2016-Jul-21 01:28N 42°33' E 005°57'2920.4
2016-Jul-21 00:04N 42°13' E 005°29'7820.4
2016-Jul-20 20:15N 41°20' E 004°13'5620.4
2016-Jul-20 17:30N 40°41' E 003°19'1920.3
2016-Jul-20 16:33N 40°28' E 003°01'2020.2
2016-Jul-20 15:33N 40°14' E 002°42'2120.6
2016-Jul-20 14:33N 40°00' E 002°22'2120.9
2016-Jul-20 13:33N 39°46' E 002°02'2121.0
2016-Jul-20 12:33N 39°30' E 001°44'2120.5
2016-Jul-20 11:31N 39°16' E 001°23'4220.4
2016-Jul-20 09:29N 38°46' E 000°47'2120.0
2016-Jul-20 08:27N 38°30' E 000°30'2420.0
2016-Jul-20 07:16N 38°13' E 000°09'1420.1
2016-Jul-20 06:34N 38°02' W 000°02'4520.5
2016-Jul-20 04:22N 37°27' W 000°39'  
Track history (hours):
 
Tides and Currents Weather Stations Pressure Air Temp Water Temp Dewpoint Dewpoint Depression Visibility Wind Speed Wind Dir Waves Ship Positions

Independence of the Seas

Last reported at 2016-Jul-30 04:06 UTC. Time now 2016-Jul-30 15:02 UTC.
Position N 50°54' W 001°25'.

Length 339 m; draft 8.8 m.

Type: Passenger vessel. MMSI: 309374000.

Date/timePositionNaut miles runAvg speedWind from/ knotsBaromVisibWave heightAir tempDewpointWater temp
2016-Jul-30 04:06N 50°54' W 001°25'4 7.0
2016-Jul-30 03:29N 50°51' W 001°20'8 9.1
2016-Jul-30 02:33N 50°46' W 001°10'1111.3
2016-Jul-30 01:33N 50°36' W 000°59'8216.1
2016-Jul-29 20:27N 49°52' W 002°48'1516.8
2016-Jul-29 19:34N 49°46' W 003°08'10116.6
2016-Jul-29 13:26N 48°54' W 005°22'61116.0
2016-Jul-27 23:20N 39°14' W 009°52'2916.4
2016-Jul-27 21:33N 38°45' W 009°51'1413.9
2016-Jul-27 20:33N 38°35' W 009°38'1616.2
2016-Jul-27 19:33N 38°40' W 009°19'9 8.7
2016-Jul-27 18:32N 38°42' W 009°08'0 0.0
2016-Jul-27 17:29N 38°42' W 009°08'0 0.0
2016-Jul-27 16:32N 38°42' W 009°08'0 0.0
2016-Jul-27 15:32N 38°42' W 009°08'0 0.0
2016-Jul-27 14:32N 38°42' W 009°08'0 0.0
2016-Jul-27 13:26N 38°42' W 009°08'0 0.0
2016-Jul-27 12:32N 38°42' W 009°08'0 0.0
2016-Jul-27 11:32N 38°42' W 009°08'3 3.4
2016-Jul-27 10:30N 38°41' W 009°12'1313.3
2016-Jul-27 09:33N 38°34' W 009°25'1616.5
2016-Jul-27 08:33N 38°17' W 009°25'1817.7
2016-Jul-27 07:33N 37°60' W 009°24'1919.3
2016-Jul-27 06:33N 37°40' W 009°23'6816.9
2016-Jul-27 02:33N 36°39' W 008°47'1919.5
2016-Jul-27 01:33N 36°33' W 008°25'2019.5
2016-Jul-27 00:32N 36°27' W 008°01'2219.5
2016-Jul-26 23:26N 36°19' W 007°36'1819.4
2016-Jul-26 22:30N 36°14' W 007°15'8219.2
2016-Jul-26 18:13N 35°58' W 005°35'1318.8
2016-Jul-26 17:33N 36°02' W 005°20'23410.2
2016-Jul-25 18:33N 37°24' W 000°47'1717.2
2016-Jul-25 17:33N 37°36' W 000°32'1717.4
2016-Jul-25 16:33N 37°48' W 000°16'1817.6
2016-Jul-25 15:33N 38°02' W 000°02'2617.5
2016-Jul-25 14:04N 38°22' E 000°20'916.9
2016-Jul-25 13:33N 38°29' E 000°27'7217.1
2016-Jul-25 09:22N 39°22' E 001°28'3217.4
2016-Jul-25 07:33N 39°45' E 001°56'1717.6
2016-Jul-25 06:34N 39°58' E 002°11'1817.8
2016-Jul-25 05:33N 40°11' E 002°27'1817.7
2016-Jul-25 04:33N 40°24' E 002°43'1817.8
2016-Jul-25 03:33N 40°37' E 002°59'1817.8
2016-Jul-25 02:34N 40°50' E 003°15'1818.2
2016-Jul-25 01:34N 41°03' E 003°32'16217.3
2016-Jul-24 16:09N 43°06' E 005°55'1 1.4
2016-Jul-24 15:33N 43°06' E 005°54'0 0.0
2016-Jul-24 14:31N 43°06' E 005°54'0 0.0
2016-Jul-24 13:31N 43°06' E 005°54'0 0.0
2016-Jul-24 12:33N 43°06' E 005°54'0 0.0
2016-Jul-24 11:33N 43°06' E 005°54'0 0.0
2016-Jul-24 10:33N 43°06' E 005°54'0 0.0
2016-Jul-24 09:33N 43°06' E 005°54'0 0.0
2016-Jul-24 08:33N 43°06' E 005°54'0 0.0
2016-Jul-24 07:33N 43°06' E 005°54'0 0.5
2016-Jul-24 06:34N 43°06' E 005°55'14115.3
2016-Jul-23 21:22N 43°20' E 009°07'1113.8
2016-Jul-23 20:34N 43°24' E 009°21'1413.7
2016-Jul-23 19:34N 43°29' E 009°39'1313.0
2016-Jul-23 18:34N 43°31' E 009°57'1313.1
2016-Jul-23 17:34N 43°32' E 010°14'3 2.6
2016-Jul-23 16:31N 43°33' E 010°18'0 0.0
2016-Jul-23 15:31N 43°33' E 010°18'0 0.0
2016-Jul-23 14:31N 43°33' E 010°18'0 0.0
2016-Jul-23 13:31N 43°33' E 010°18'0 0.0
2016-Jul-23 12:31N 43°33' E 010°18'0 0.0
2016-Jul-23 11:31N 43°33' E 010°18'0 0.0
2016-Jul-23 10:31N 43°33' E 010°18'0 0.0
2016-Jul-23 09:31N 43°33' E 010°18'0 0.0
2016-Jul-23 08:25N 43°33' E 010°18'0 0.0
2016-Jul-23 07:31N 43°33' E 010°18'0 0.0
2016-Jul-23 06:31N 43°33' E 010°18'0 0.0
2016-Jul-23 04:34N 43°33' E 010°18'10 9.6
2016-Jul-23 03:33N 43°24' E 010°12'1313.5
2016-Jul-23 02:33N 43°11' E 010°08'1414.4
2016-Jul-23 01:33N 42°57' E 010°03'1413.8
2016-Jul-23 00:33N 42°43' E 010°04'1514.1
2016-Jul-22 23:27N 42°32' E 010°18'1414.6
2016-Jul-22 22:29N 42°21' E 010°30'1314.1
2016-Jul-22 21:33N 42°09' E 010°37'1313.2
2016-Jul-22 20:33N 42°00' E 010°51'1514.2
2016-Jul-22 19:31N 41°57' E 011°10'11 0.6
2016-Jul-22 02:13N 42°07' E 011°05'1317.8
2016-Jul-22 01:29N 42°14' E 010°50'4117.9
2016-Jul-21 23:10N 42°41' E 010°07'1220.3
2016-Jul-21 22:34N 42°48' E 009°55'2120.2
2016-Jul-21 21:32N 43°02' E 009°33'2020.1
2016-Jul-21 20:33N 43°10' E 009°08'2020.5
2016-Jul-21 19:33N 43°17' E 008°42'2020.1
2016-Jul-21 18:32N 43°24' E 008°16'2719.9
2016-Jul-21 17:12N 43°33' E 007°41'1319.9
2016-Jul-21 16:34N 43°38' E 007°25'5 2.2
2016-Jul-21 14:05N 43°41' E 007°19'0 0.0
2016-Jul-21 11:17N 43°41' E 007°19'0 0.0
2016-Jul-21 10:05N 43°41' E 007°19'0 0.0
2016-Jul-21 08:29N 43°41' E 007°19'0 0.0
2016-Jul-21 07:13N 43°41' E 007°19'0 0.0
2016-Jul-21 06:32N 43°41' E 007°19'1211.7
2016-Jul-21 05:33N 43°30' E 007°17'2019.6
2016-Jul-21 04:33N 43°15' E 006°59'2119.7
2016-Jul-21 03:29N 42°60' E 006°40'1919.9
2016-Jul-21 02:33N 42°48' E 006°20'2220.4
2016-Jul-21 01:28N 42°33' E 005°57'2920.4
2016-Jul-21 00:04N 42°13' E 005°29'7820.4
2016-Jul-20 20:15N 41°20' E 004°13'5620.4
2016-Jul-20 17:30N 40°41' E 003°19'1920.3
2016-Jul-20 16:33N 40°28' E 003°01'2020.2
2016-Jul-20 15:33N 40°14' E 002°42'2120.6
2016-Jul-20 14:33N 40°00' E 002°22'2120.9
2016-Jul-20 13:33N 39°46' E 002°02'2121.0
2016-Jul-20 12:33N 39°30' E 001°44'2120.5
2016-Jul-20 11:31N 39°16' E 001°23'4220.4
2016-Jul-20 09:29N 38°46' E 000°47'2120.0
2016-Jul-20 08:27N 38°30' E 000°30'2420.0
2016-Jul-20 07:16N 38°13' E 000°09'1420.1
2016-Jul-20 06:34N 38°02' W 000°02'4520.5
2016-Jul-20 04:22N 37°27' W 000°39'  

Dump ship's entire track history